sensor_id;sensor_type;location;lat;lon;timestamp;temperature;humidity
17813;DHT22;9030;50.792;8.320;2022-12-10T02:58:48;-3.50;99.90
17813;DHT22;9030;50.792;8.320;2022-12-10T04:46:08;-4.10;99.90
17813;DHT22;9030;50.792;8.320;2022-12-10T07:26:19;-6.10;99.90
17813;DHT22;9030;50.792;8.320;2022-12-10T07:28:47;-6.10;99.90
17813;DHT22;9030;50.792;8.320;2022-12-10T07:31:14;-6.00;99.90
17813;DHT22;9030;50.792;8.320;2022-12-10T07:33:41;-6.10;99.90
17813;DHT22;9030;50.792;8.320;2022-12-10T07:36:10;-6.20;99.90
17813;DHT22;9030;50.792;8.320;2022-12-10T07:41:06;-6.10;99.90
17813;DHT22;9030;50.792;8.320;2022-12-10T07:43:34;-6.10;99.90
17813;DHT22;9030;50.792;8.320;2022-12-10T07:46:06;-6.10;99.90
17813;DHT22;9030;50.792;8.320;2022-12-10T07:48:35;-6.10;99.90
17813;DHT22;9030;50.792;8.320;2022-12-10T07:51:02;-6.10;99.90
17813;DHT22;9030;50.792;8.320;2022-12-10T07:53:29;-6.00;99.90
17813;DHT22;9030;50.792;8.320;2022-12-10T07:55:56;-5.90;99.90
17813;DHT22;9030;50.792;8.320;2022-12-10T07:58:23;-5.80;99.90
17813;DHT22;9030;50.792;8.320;2022-12-10T08:00:50;-5.50;99.90
17813;DHT22;9030;50.792;8.320;2022-12-10T08:03:18;-5.40;99.90
17813;DHT22;9030;50.792;8.320;2022-12-10T08:05:45;-5.20;99.90
17813;DHT22;9030;50.792;8.320;2022-12-10T08:08:12;-5.20;99.90
17813;DHT22;9030;50.792;8.320;2022-12-10T08:10:39;-5.00;99.90
17813;DHT22;9030;50.792;8.320;2022-12-10T08:13:06;-5.10;99.90
17813;DHT22;9030;50.792;8.320;2022-12-10T08:15:33;-5.00;99.90
17813;DHT22;9030;50.792;8.320;2022-12-10T08:17:59;-5.00;99.90
17813;DHT22;9030;50.792;8.320;2022-12-10T08:20:27;-4.80;99.90
17813;DHT22;9030;50.792;8.320;2022-12-10T08:22:54;-4.70;99.90
17813;DHT22;9030;50.792;8.320;2022-12-10T08:25:21;-4.50;99.90
17813;DHT22;9030;50.792;8.320;2022-12-10T08:27:48;-4.50;99.90
17813;DHT22;9030;50.792;8.320;2022-12-10T08:30:14;-4.50;99.90
17813;DHT22;9030;50.792;8.320;2022-12-10T08:32:41;-4.60;99.90
17813;DHT22;9030;50.792;8.320;2022-12-10T08:35:08;-4.40;99.90
17813;DHT22;9030;50.792;8.320;2022-12-10T08:37:36;-4.30;99.90
17813;DHT22;9030;50.792;8.320;2022-12-10T08:40:07;-4.30;99.90
17813;DHT22;9030;50.792;8.320;2022-12-10T08:42:34;-4.20;99.90
17813;DHT22;9030;50.792;8.320;2022-12-10T08:45:01;-4.20;99.90
17813;DHT22;9030;50.792;8.320;2022-12-10T08:47:28;-4.10;99.90
17813;DHT22;9030;50.792;8.320;2022-12-10T08:49:55;-4.10;99.90
17813;DHT22;9030;50.792;8.320;2022-12-10T08:52:21;-4.10;99.90
17813;DHT22;9030;50.792;8.320;2022-12-10T08:54:49;-4.10;99.90
17813;DHT22;9030;50.792;8.320;2022-12-10T08:57:16;-4.00;99.90
17813;DHT22;9030;50.792;8.320;2022-12-10T08:59:43;-3.90;99.90
17813;DHT22;9030;50.792;8.320;2022-12-10T09:02:10;-3.90;99.90
17813;DHT22;9030;50.792;8.320;2022-12-10T09:04:37;-3.80;99.90
17813;DHT22;9030;50.792;8.320;2022-12-10T09:07:04;-3.70;99.90
17813;DHT22;9030;50.792;8.320;2022-12-10T09:09:32;-3.60;99.90
17813;DHT22;9030;50.792;8.320;2022-12-10T09:12:08;-3.80;99.90
17813;DHT22;9030;50.792;8.320;2022-12-10T09:14:35;-3.80;99.90
17813;DHT22;9030;50.792;8.320;2022-12-10T09:17:05;-3.70;99.90
17813;DHT22;9030;50.792;8.320;2022-12-10T09:19:31;-3.60;99.90
17813;DHT22;9030;50.792;8.320;2022-12-10T09:21:58;-3.30;99.90
17813;DHT22;9030;50.792;8.320;2022-12-10T09:24:25;-3.10;99.90
17813;DHT22;9030;50.792;8.320;2022-12-10T09:26:52;-3.10;99.90
17813;DHT22;9030;50.792;8.320;2022-12-10T09:29:20;-3.00;99.90
17813;DHT22;9030;50.792;8.320;2022-12-10T09:31:49;-2.90;99.90
17813;DHT22;9030;50.792;8.320;2022-12-10T09:34:16;-2.80;99.90
17813;DHT22;9030;50.792;8.320;2022-12-10T09:36:43;-3.00;99.90
17813;DHT22;9030;50.792;8.320;2022-12-10T09:39:10;-2.90;99.90
17813;DHT22;9030;50.792;8.320;2022-12-10T09:41:47;-2.70;99.90
17813;DHT22;9030;50.792;8.320;2022-12-10T09:44:28;-2.70;99.90
17813;DHT22;9030;50.792;8.320;2022-12-10T09:46:59;-2.70;99.90
17813;DHT22;9030;50.792;8.320;2022-12-10T09:49:36;-2.80;99.90
17813;DHT22;9030;50.792;8.320;2022-12-10T09:52:11;-2.50;99.90
17813;DHT22;9030;50.792;8.320;2022-12-10T09:54:41;-2.40;99.90
17813;DHT22;9030;50.792;8.320;2022-12-10T09:57:16;-2.30;99.90
17813;DHT22;9030;50.792;8.320;2022-12-10T09:59:49;-2.40;99.90
17813;DHT22;9030;50.792;8.320;2022-12-10T10:02:21;-2.50;99.90
17813;DHT22;9030;50.792;8.320;2022-12-10T10:04:50;-2.20;99.90
17813;DHT22;9030;50.792;8.320;2022-12-10T10:07:21;-2.20;99.90
17813;DHT22;9030;50.792;8.320;2022-12-10T10:09:49;-2.10;99.90
17813;DHT22;9030;50.792;8.320;2022-12-10T10:12:16;-2.10;99.90
17813;DHT22;9030;50.792;8.320;2022-12-10T10:14:44;-1.90;99.90
17813;DHT22;9030;50.792;8.320;2022-12-10T10:17:17;-1.90;99.90
17813;DHT22;9030;50.792;8.320;2022-12-10T10:19:45;-2.00;99.90
17813;DHT22;9030;50.792;8.320;2022-12-10T10:22:12;-2.10;99.90
17813;DHT22;9030;50.792;8.320;2022-12-10T10:24:41;-2.10;99.90
17813;DHT22;9030;50.792;8.320;2022-12-10T10:27:13;-1.90;99.90
17813;DHT22;9030;50.792;8.320;2022-12-10T10:29:41;-1.90;99.90
17813;DHT22;9030;50.792;8.320;2022-12-10T10:32:16;-1.80;99.90
17813;DHT22;9030;50.792;8.320;2022-12-10T10:34:44;-2.00;99.90
17813;DHT22;9030;50.792;8.320;2022-12-10T10:37:16;-1.90;99.90
17813;DHT22;9030;50.792;8.320;2022-12-10T10:39:47;-1.70;99.90
17813;DHT22;9030;50.792;8.320;2022-12-10T10:42:25;-1.80;99.90
17813;DHT22;9030;50.792;8.320;2022-12-10T10:44:52;-1.70;99.90
17813;DHT22;9030;50.792;8.320;2022-12-10T10:47:28;-1.70;99.90
17813;DHT22;9030;50.792;8.320;2022-12-10T10:49:55;-1.60;99.90
17813;DHT22;9030;50.792;8.320;2022-12-10T10:52:22;-1.70;99.90
17813;DHT22;9030;50.792;8.320;2022-12-10T10:54:52;-1.70;99.90
17813;DHT22;9030;50.792;8.320;2022-12-10T10:57:23;-1.80;99.90
17813;DHT22;9030;50.792;8.320;2022-12-10T10:59:52;-1.80;99.90
17813;DHT22;9030;50.792;8.320;2022-12-10T11:02:23;-1.60;99.90
17813;DHT22;9030;50.792;8.320;2022-12-10T11:04:54;-1.60;99.90
17813;DHT22;9030;50.792;8.320;2022-12-10T11:07:26;-1.50;99.90
17813;DHT22;9030;50.792;8.320;2022-12-10T11:09:59;-1.40;99.90
17813;DHT22;9030;50.792;8.320;2022-12-10T11:12:34;-1.70;99.90
17813;DHT22;9030;50.792;8.320;2022-12-10T11:15:03;-1.70;99.90
17813;DHT22;9030;50.792;8.320;2022-12-10T11:17:46;-1.70;99.90
17813;DHT22;9030;50.792;8.320;2022-12-10T11:20:18;-1.90;99.90
17813;DHT22;9030;50.792;8.320;2022-12-10T11:22:49;-1.80;99.90
17813;DHT22;9030;50.792;8.320;2022-12-10T11:25:17;-1.90;99.90
17813;DHT22;9030;50.792;8.320;2022-12-10T11:27:52;-1.80;99.90
17813;DHT22;9030;50.792;8.320;2022-12-10T11:30:24;-1.70;99.90
17813;DHT22;9030;50.792;8.320;2022-12-10T11:33:04;-1.60;99.90
17813;DHT22;9030;50.792;8.320;2022-12-10T11:38:21;-1.80;99.90
17813;DHT22;9030;50.792;8.320;2022-12-10T11:40:50;-1.80;99.90
17813;DHT22;9030;50.792;8.320;2022-12-10T11:43:50;-1.80;99.90
17813;DHT22;9030;50.792;8.320;2022-12-10T11:46:30;-1.40;99.90
17813;DHT22;9030;50.792;8.320;2022-12-10T11:51:40;-1.10;99.90
17813;DHT22;9030;50.792;8.320;2022-12-10T11:54:26;-1.10;99.90
17813;DHT22;9030;50.792;8.320;2022-12-10T11:57:01;-1.10;99.90
17813;DHT22;9030;50.792;8.320;2022-12-10T11:59:34;-1.20;99.90
17813;DHT22;9030;50.792;8.320;2022-12-10T12:02:44;-1.10;99.90
17813;DHT22;9030;50.792;8.320;2022-12-10T12:05:34;-1.10;99.90
17813;DHT22;9030;50.792;8.320;2022-12-10T12:08:10;-1.50;99.90
17813;DHT22;9030;50.792;8.320;2022-12-10T12:10:54;-1.70;99.90
17813;DHT22;9030;50.792;8.320;2022-12-10T12:13:27;-1.70;99.90
17813;DHT22;9030;50.792;8.320;2022-12-10T12:15:58;-1.70;99.90
17813;DHT22;9030;50.792;8.320;2022-12-10T12:18:34;-1.80;99.90
17813;DHT22;9030;50.792;8.320;2022-12-10T12:21:06;-1.90;99.90
17813;DHT22;9030;50.792;8.320;2022-12-10T12:23:43;-1.90;99.90
17813;DHT22;9030;50.792;8.320;2022-12-10T12:26:13;-1.90;99.90
17813;DHT22;9030;50.792;8.320;2022-12-10T12:28:43;-2.00;99.90
17813;DHT22;9030;50.792;8.320;2022-12-10T12:31:16;-2.00;99.90
17813;DHT22;9030;50.792;8.320;2022-12-10T12:33:49;-2.00;99.90
17813;DHT22;9030;50.792;8.320;2022-12-10T12:36:19;-1.90;99.90
17813;DHT22;9030;50.792;8.320;2022-12-10T12:38:51;-2.00;99.90
17813;DHT22;9030;50.792;8.320;2022-12-10T12:41:26;-2.10;99.90
17813;DHT22;9030;50.792;8.320;2022-12-10T12:44:02;-2.10;99.90
17813;DHT22;9030;50.792;8.320;2022-12-10T12:46:35;-2.20;99.90
17813;DHT22;9030;50.792;8.320;2022-12-10T12:49:12;-2.30;99.90
17813;DHT22;9030;50.792;8.320;2022-12-10T12:51:48;-2.20;99.90
17813;DHT22;9030;50.792;8.320;2022-12-10T12:54:18;-2.20;99.90
17813;DHT22;9030;50.792;8.320;2022-12-10T12:56:59;-2.30;99.90
17813;DHT22;9030;50.792;8.320;2022-12-10T12:59:36;-2.50;99.90
17813;DHT22;9030;50.792;8.320;2022-12-10T13:02:17;-2.40;99.90
17813;DHT22;9030;50.792;8.320;2022-12-10T13:04:45;-2.40;99.90
17813;DHT22;9030;50.792;8.320;2022-12-10T13:07:33;-2.40;99.90
17813;DHT22;9030;50.792;8.320;2022-12-10T13:10:24;-2.40;99.90
17813;DHT22;9030;50.792;8.320;2022-12-10T13:13:06;-2.40;99.90
17813;DHT22;9030;50.792;8.320;2022-12-10T13:15:35;-2.40;99.90
17813;DHT22;9030;50.792;8.320;2022-12-10T13:18:22;-2.60;99.90
17813;DHT22;9030;50.792;8.320;2022-12-10T13:20:52;-2.60;99.90
17813;DHT22;9030;50.792;8.320;2022-12-10T13:23:49;-2.70;99.90
17813;DHT22;9030;50.792;8.320;2022-12-10T13:26:25;-2.60;99.90
17813;DHT22;9030;50.792;8.320;2022-12-10T13:28:54;-2.70;99.90
17813;DHT22;9030;50.792;8.320;2022-12-10T13:31:35;-2.70;99.90
17813;DHT22;9030;50.792;8.320;2022-12-10T13:34:21;-2.60;99.90
17813;DHT22;9030;50.792;8.320;2022-12-10T13:37:15;-2.60;99.90
17813;DHT22;9030;50.792;8.320;2022-12-10T13:39:54;-2.80;99.90
17813;DHT22;9030;50.792;8.320;2022-12-10T13:42:30;-2.90;99.90
17813;DHT22;9030;50.792;8.320;2022-12-10T13:45:28;-2.90;99.90
17813;DHT22;9030;50.792;8.320;2022-12-10T13:48:16;-2.90;99.90
17813;DHT22;9030;50.792;8.320;2022-12-10T13:50:47;-3.00;99.90
17813;DHT22;9030;50.792;8.320;2022-12-10T13:53:23;-3.10;99.90
17813;DHT22;9030;50.792;8.320;2022-12-10T13:56:06;-3.00;99.90
17813;DHT22;9030;50.792;8.320;2022-12-10T13:58:42;-3.00;99.90
17813;DHT22;9030;50.792;8.320;2022-12-10T14:01:29;-3.00;99.90
17813;DHT22;9030;50.792;8.320;2022-12-10T14:04:15;-3.00;99.90
17813;DHT22;9030;50.792;8.320;2022-12-10T14:06:45;-3.00;99.90
17813;DHT22;9030;50.792;8.320;2022-12-10T14:09:17;-3.10;99.90
17813;DHT22;9030;50.792;8.320;2022-12-10T14:11:49;-3.10;99.90
17813;DHT22;9030;50.792;8.320;2022-12-10T14:14:23;-3.10;99.90
17813;DHT22;9030;50.792;8.320;2022-12-10T14:16:51;-3.10;99.90
17813;DHT22;9030;50.792;8.320;2022-12-10T14:19:19;-3.10;99.90
17813;DHT22;9030;50.792;8.320;2022-12-10T14:21:47;-3.10;99.90
17813;DHT22;9030;50.792;8.320;2022-12-10T14:24:28;-3.10;99.90
17813;DHT22;9030;50.792;8.320;2022-12-10T14:27:02;-3.10;99.90
17813;DHT22;9030;50.792;8.320;2022-12-10T14:29:32;-3.00;99.90
17813;DHT22;9030;50.792;8.320;2022-12-10T14:31:58;-3.00;99.90
17813;DHT22;9030;50.792;8.320;2022-12-10T14:34:27;-3.00;99.90
17813;DHT22;9030;50.792;8.320;2022-12-10T14:36:56;-3.10;99.90
17813;DHT22;9030;50.792;8.320;2022-12-10T14:39:26;-3.00;99.90
17813;DHT22;9030;50.792;8.320;2022-12-10T14:41:55;-2.90;99.90
17813;DHT22;9030;50.792;8.320;2022-12-10T14:44:24;-2.90;99.90
17813;DHT22;9030;50.792;8.320;2022-12-10T14:47:03;-3.00;99.90
17813;DHT22;9030;50.792;8.320;2022-12-10T14:49:30;-3.00;99.90
17813;DHT22;9030;50.792;8.320;2022-12-10T14:51:57;-3.00;99.90
17813;DHT22;9030;50.792;8.320;2022-12-10T14:54:26;-2.90;99.90
17813;DHT22;9030;50.792;8.320;2022-12-10T14:56:54;-2.90;99.90
17813;DHT22;9030;50.792;8.320;2022-12-10T14:59:25;-3.00;99.90
17813;DHT22;9030;50.792;8.320;2022-12-10T15:01:56;-3.00;99.90
17813;DHT22;9030;50.792;8.320;2022-12-10T15:04:27;-3.00;99.90
17813;DHT22;9030;50.792;8.320;2022-12-10T15:06:57;-3.00;99.90
17813;DHT22;9030;50.792;8.320;2022-12-10T15:09:26;-2.90;99.90
17813;DHT22;9030;50.792;8.320;2022-12-10T15:11:53;-2.90;99.90
17813;DHT22;9030;50.792;8.320;2022-12-10T15:14:21;-3.00;99.90
17813;DHT22;9030;50.792;8.320;2022-12-10T15:16:50;-3.00;99.90
17813;DHT22;9030;50.792;8.320;2022-12-10T15:19:21;-2.90;99.90
17813;DHT22;9030;50.792;8.320;2022-12-10T15:21:51;-3.00;99.90
17813;DHT22;9030;50.792;8.320;2022-12-10T15:24:20;-2.90;99.90
17813;DHT22;9030;50.792;8.320;2022-12-10T15:26:49;-2.90;99.90
17813;DHT22;9030;50.792;8.320;2022-12-10T15:29:31;-2.90;99.90
17813;DHT22;9030;50.792;8.320;2022-12-10T15:32:04;-3.00;99.90
17813;DHT22;9030;50.792;8.320;2022-12-10T15:34:38;-3.00;99.90
17813;DHT22;9030;50.792;8.320;2022-12-10T15:37:15;-2.90;99.90
17813;DHT22;9030;50.792;8.320;2022-12-10T15:39:46;-2.90;99.90
17813;DHT22;9030;50.792;8.320;2022-12-10T15:42:38;-2.90;99.90
17813;DHT22;9030;50.792;8.320;2022-12-10T15:45:20;-3.00;99.90
17813;DHT22;9030;50.792;8.320;2022-12-10T15:47:49;-3.00;99.90
17813;DHT22;9030;50.792;8.320;2022-12-10T15:50:16;-2.90;99.90
17813;DHT22;9030;50.792;8.320;2022-12-10T15:52:43;-2.90;99.90
17813;DHT22;9030;50.792;8.320;2022-12-10T15:55:12;-2.90;99.90
17813;DHT22;9030;50.792;8.320;2022-12-10T15:57:40;-3.00;99.90
17813;DHT22;9030;50.792;8.320;2022-12-10T16:00:15;-2.90;99.90
17813;DHT22;9030;50.792;8.320;2022-12-10T16:02:49;-3.00;99.90
17813;DHT22;9030;50.792;8.320;2022-12-10T16:05:18;-3.00;99.90
17813;DHT22;9030;50.792;8.320;2022-12-10T16:07:47;-3.00;99.90
17813;DHT22;9030;50.792;8.320;2022-12-10T16:10:16;-3.00;99.90
17813;DHT22;9030;50.792;8.320;2022-12-10T16:12:45;-3.00;99.90
17813;DHT22;9030;50.792;8.320;2022-12-10T16:15:17;-3.00;99.90
17813;DHT22;9030;50.792;8.320;2022-12-10T16:17:44;-3.00;99.90
17813;DHT22;9030;50.792;8.320;2022-12-10T16:20:21;-2.90;99.90
17813;DHT22;9030;50.792;8.320;2022-12-10T16:22:48;-2.90;99.90
17813;DHT22;9030;50.792;8.320;2022-12-10T16:25:16;-3.00;99.90
17813;DHT22;9030;50.792;8.320;2022-12-10T16:27:43;-2.90;99.90
17813;DHT22;9030;50.792;8.320;2022-12-10T16:30:15;-2.90;99.90
17813;DHT22;9030;50.792;8.320;2022-12-10T16:32:43;-2.90;99.90
17813;DHT22;9030;50.792;8.320;2022-12-10T16:35:10;-2.80;99.90
17813;DHT22;9030;50.792;8.320;2022-12-10T16:37:41;-2.80;99.90
17813;DHT22;9030;50.792;8.320;2022-12-10T16:40:09;-2.90;99.90
17813;DHT22;9030;50.792;8.320;2022-12-10T16:42:36;-2.80;99.90
17813;DHT22;9030;50.792;8.320;2022-12-10T16:45:11;-2.80;99.90
17813;DHT22;9030;50.792;8.320;2022-12-10T16:47:38;-2.80;99.90
17813;DHT22;9030;50.792;8.320;2022-12-10T16:50:06;-2.80;99.90
17813;DHT22;9030;50.792;8.320;2022-12-10T16:52:32;-2.80;99.90
17813;DHT22;9030;50.792;8.320;2022-12-10T16:55:01;-2.80;99.90
17813;DHT22;9030;50.792;8.320;2022-12-10T16:57:28;-2.80;99.90
17813;DHT22;9030;50.792;8.320;2022-12-10T16:59:55;-2.80;99.90
17813;DHT22;9030;50.792;8.320;2022-12-10T17:02:22;-2.80;99.90
17813;DHT22;9030;50.792;8.320;2022-12-10T17:04:49;-2.80;99.90
17813;DHT22;9030;50.792;8.320;2022-12-10T17:07:15;-2.60;99.90
17813;DHT22;9030;50.792;8.320;2022-12-10T17:09:42;-2.60;99.90
17813;DHT22;9030;50.792;8.320;2022-12-10T17:12:10;-2.60;99.90
17813;DHT22;9030;50.792;8.320;2022-12-10T17:14:39;-2.60;99.90
17813;DHT22;9030;50.792;8.320;2022-12-10T17:17:08;-2.70;99.90
17813;DHT22;9030;50.792;8.320;2022-12-10T17:19:37;-2.60;99.90
17813;DHT22;9030;50.792;8.320;2022-12-10T17:22:06;-2.50;99.90
17813;DHT22;9030;50.792;8.320;2022-12-10T17:24:33;-2.40;99.90
17813;DHT22;9030;50.792;8.320;2022-12-10T17:27:04;-2.40;99.90
17813;DHT22;9030;50.792;8.320;2022-12-10T17:29:35;-2.30;99.90
17813;DHT22;9030;50.792;8.320;2022-12-10T17:32:03;-2.40;99.90
17813;DHT22;9030;50.792;8.320;2022-12-10T17:34:31;-2.50;99.90
17813;DHT22;9030;50.792;8.320;2022-12-10T17:36:58;-2.60;99.90
17813;DHT22;9030;50.792;8.320;2022-12-10T17:39:25;-2.50;99.90
17813;DHT22;9030;50.792;8.320;2022-12-10T17:41:54;-2.40;99.90
17813;DHT22;9030;50.792;8.320;2022-12-10T17:44:21;-2.40;99.90
17813;DHT22;9030;50.792;8.320;2022-12-10T17:46:49;-2.60;99.90
17813;DHT22;9030;50.792;8.320;2022-12-10T17:49:16;-2.60;99.90
17813;DHT22;9030;50.792;8.320;2022-12-10T17:51:43;-2.60;99.90
17813;DHT22;9030;50.792;8.320;2022-12-10T17:54:10;-2.60;99.90
17813;DHT22;9030;50.792;8.320;2022-12-10T17:56:37;-2.50;99.90
17813;DHT22;9030;50.792;8.320;2022-12-10T17:59:05;-2.60;99.90
17813;DHT22;9030;50.792;8.320;2022-12-10T18:01:32;-2.70;99.90
17813;DHT22;9030;50.792;8.320;2022-12-10T18:04:00;-2.60;99.90
17813;DHT22;9030;50.792;8.320;2022-12-10T18:06:29;-2.60;99.90
17813;DHT22;9030;50.792;8.320;2022-12-10T18:08:59;-2.60;99.90
17813;DHT22;9030;50.792;8.320;2022-12-10T18:11:28;-2.60;99.90
17813;DHT22;9030;50.792;8.320;2022-12-10T18:13:55;-2.50;99.90
17813;DHT22;9030;50.792;8.320;2022-12-10T18:16:24;-2.60;99.90
17813;DHT22;9030;50.792;8.320;2022-12-10T18:18:52;-2.70;99.90
17813;DHT22;9030;50.792;8.320;2022-12-10T18:21:21;-2.70;99.90
17813;DHT22;9030;50.792;8.320;2022-12-10T18:23:49;-2.80;99.90
17813;DHT22;9030;50.792;8.320;2022-12-10T18:26:18;-2.70;99.90
17813;DHT22;9030;50.792;8.320;2022-12-10T18:28:48;-2.60;99.90
17813;DHT22;9030;50.792;8.320;2022-12-10T18:31:17;-2.60;99.90
17813;DHT22;9030;50.792;8.320;2022-12-10T18:33:46;-2.60;99.90
17813;DHT22;9030;50.792;8.320;2022-12-10T18:36:17;-2.70;99.90
17813;DHT22;9030;50.792;8.320;2022-12-10T18:38:46;-2.70;99.90
17813;DHT22;9030;50.792;8.320;2022-12-10T18:41:15;-2.70;99.90
17813;DHT22;9030;50.792;8.320;2022-12-10T18:43:42;-2.70;99.90
17813;DHT22;9030;50.792;8.320;2022-12-10T18:46:12;-2.70;99.90
17813;DHT22;9030;50.792;8.320;2022-12-10T18:48:40;-2.70;99.90
17813;DHT22;9030;50.792;8.320;2022-12-10T18:51:07;-2.60;99.90
17813;DHT22;9030;50.792;8.320;2022-12-10T18:53:34;-2.80;99.90
17813;DHT22;9030;50.792;8.320;2022-12-10T18:56:02;-2.70;99.90
17813;DHT22;9030;50.792;8.320;2022-12-10T18:58:29;-2.70;99.90
17813;DHT22;9030;50.792;8.320;2022-12-10T19:00:57;-2.90;99.90
17813;DHT22;9030;50.792;8.320;2022-12-10T19:03:24;-2.80;99.90
17813;DHT22;9030;50.792;8.320;2022-12-10T19:05:51;-2.90;99.90
17813;DHT22;9030;50.792;8.320;2022-12-10T19:08:18;-3.00;99.90
17813;DHT22;9030;50.792;8.320;2022-12-10T19:10:45;-3.10;99.90
17813;DHT22;9030;50.792;8.320;2022-12-10T19:13:13;-3.00;99.90
17813;DHT22;9030;50.792;8.320;2022-12-10T19:15:40;-2.90;99.90
17813;DHT22;9030;50.792;8.320;2022-12-10T19:18:09;-3.00;99.90
17813;DHT22;9030;50.792;8.320;2022-12-10T19:20:36;-3.00;99.90
17813;DHT22;9030;50.792;8.320;2022-12-10T19:23:04;-3.00;99.90
17813;DHT22;9030;50.792;8.320;2022-12-10T19:25:31;-3.00;99.90
17813;DHT22;9030;50.792;8.320;2022-12-10T19:27:58;-3.00;99.90
17813;DHT22;9030;50.792;8.320;2022-12-10T19:30:27;-3.10;99.90
17813;DHT22;9030;50.792;8.320;2022-12-10T19:32:54;-3.20;99.90
17813;DHT22;9030;50.792;8.320;2022-12-10T19:35:23;-3.10;99.90
17813;DHT22;9030;50.792;8.320;2022-12-10T19:37:50;-3.20;99.90
17813;DHT22;9030;50.792;8.320;2022-12-10T19:40:20;-3.10;99.90
17813;DHT22;9030;50.792;8.320;2022-12-10T19:42:47;-3.20;99.90
17813;DHT22;9030;50.792;8.320;2022-12-10T19:45:14;-3.20;99.90
17813;DHT22;9030;50.792;8.320;2022-12-10T19:47:43;-3.30;99.90
17813;DHT22;9030;50.792;8.320;2022-12-10T19:50:13;-3.10;99.90
17813;DHT22;9030;50.792;8.320;2022-12-10T19:52:41;-3.20;99.90
17813;DHT22;9030;50.792;8.320;2022-12-10T19:55:08;-3.20;99.90
17813;DHT22;9030;50.792;8.320;2022-12-10T19:57:35;-3.20;99.90
17813;DHT22;9030;50.792;8.320;2022-12-10T20:00:04;-3.40;99.90
17813;DHT22;9030;50.792;8.320;2022-12-10T20:02:33;-3.40;99.90
17813;DHT22;9030;50.792;8.320;2022-12-10T20:05:01;-3.40;99.90
17813;DHT22;9030;50.792;8.320;2022-12-10T20:07:27;-3.40;99.90
17813;DHT22;9030;50.792;8.320;2022-12-10T20:09:55;-3.40;99.90
17813;DHT22;9030;50.792;8.320;2022-12-10T20:12:21;-3.50;99.90
17813;DHT22;9030;50.792;8.320;2022-12-10T20:14:48;-3.50;99.90
17813;DHT22;9030;50.792;8.320;2022-12-10T20:17:15;-3.50;99.90
17813;DHT22;9030;50.792;8.320;2022-12-10T20:19:45;-3.50;99.90
17813;DHT22;9030;50.792;8.320;2022-12-10T20:22:13;-3.50;99.90
17813;DHT22;9030;50.792;8.320;2022-12-10T20:24:39;-3.50;99.90
17813;DHT22;9030;50.792;8.320;2022-12-10T20:27:10;-3.50;99.90
17813;DHT22;9030;50.792;8.320;2022-12-10T20:29:37;-3.50;99.90
17813;DHT22;9030;50.792;8.320;2022-12-10T20:32:04;-3.40;99.90
17813;DHT22;9030;50.792;8.320;2022-12-10T20:34:32;-3.50;99.90
17813;DHT22;9030;50.792;8.320;2022-12-10T20:36:59;-3.50;99.90
17813;DHT22;9030;50.792;8.320;2022-12-10T20:39:29;-3.50;99.90
17813;DHT22;9030;50.792;8.320;2022-12-10T20:41:57;-3.50;99.90
17813;DHT22;9030;50.792;8.320;2022-12-10T20:44:25;-3.60;99.90
17813;DHT22;9030;50.792;8.320;2022-12-10T20:46:54;-3.70;99.90
17813;DHT22;9030;50.792;8.320;2022-12-10T20:49:23;-3.60;99.90
17813;DHT22;9030;50.792;8.320;2022-12-10T20:51:50;-3.60;99.90
17813;DHT22;9030;50.792;8.320;2022-12-10T20:54:17;-3.60;99.90
17813;DHT22;9030;50.792;8.320;2022-12-10T20:56:46;-3.70;99.90
17813;DHT22;9030;50.792;8.320;2022-12-10T20:59:14;-3.70;99.90
17813;DHT22;9030;50.792;8.320;2022-12-10T21:01:41;-3.60;99.90
17813;DHT22;9030;50.792;8.320;2022-12-10T21:04:08;-3.70;99.90
17813;DHT22;9030;50.792;8.320;2022-12-10T21:06:35;-3.80;99.90
17813;DHT22;9030;50.792;8.320;2022-12-10T21:09:02;-3.70;99.90
17813;DHT22;9030;50.792;8.320;2022-12-10T21:11:29;-3.60;99.90
17813;DHT22;9030;50.792;8.320;2022-12-10T21:13:57;-3.60;99.90
17813;DHT22;9030;50.792;8.320;2022-12-10T21:16:24;-3.70;99.90
17813;DHT22;9030;50.792;8.320;2022-12-10T21:18:51;-3.60;99.90
17813;DHT22;9030;50.792;8.320;2022-12-10T21:21:19;-3.60;99.90
17813;DHT22;9030;50.792;8.320;2022-12-10T21:23:47;-3.50;99.90
17813;DHT22;9030;50.792;8.320;2022-12-10T21:26:14;-3.50;99.90
17813;DHT22;9030;50.792;8.320;2022-12-10T21:28:40;-3.70;99.90
17813;DHT22;9030;50.792;8.320;2022-12-10T21:31:14;-3.50;99.90
17813;DHT22;9030;50.792;8.320;2022-12-10T21:33:41;-3.50;99.90
17813;DHT22;9030;50.792;8.320;2022-12-10T21:36:09;-3.40;99.90
17813;DHT22;9030;50.792;8.320;2022-12-10T21:38:36;-3.50;99.90
17813;DHT22;9030;50.792;8.320;2022-12-10T21:41:04;-3.60;99.90
17813;DHT22;9030;50.792;8.320;2022-12-10T21:43:53;-3.40;99.90
17813;DHT22;9030;50.792;8.320;2022-12-10T21:46:21;-3.60;99.90
17813;DHT22;9030;50.792;8.320;2022-12-10T21:48:48;-3.50;99.90
17813;DHT22;9030;50.792;8.320;2022-12-10T21:51:14;-3.40;99.90
17813;DHT22;9030;50.792;8.320;2022-12-10T21:53:41;-3.30;99.90
17813;DHT22;9030;50.792;8.320;2022-12-10T21:56:09;-3.20;99.90
17813;DHT22;9030;50.792;8.320;2022-12-10T21:58:36;-3.30;99.90
17813;DHT22;9030;50.792;8.320;2022-12-10T22:01:04;-3.30;99.90
17813;DHT22;9030;50.792;8.320;2022-12-10T22:03:32;-3.30;99.90
17813;DHT22;9030;50.792;8.320;2022-12-10T22:05:59;-3.40;99.90
17813;DHT22;9030;50.792;8.320;2022-12-10T22:08:26;-3.40;99.90
17813;DHT22;9030;50.792;8.320;2022-12-10T22:10:53;-3.40;99.90
17813;DHT22;9030;50.792;8.320;2022-12-10T22:13:19;-3.40;99.90
17813;DHT22;9030;50.792;8.320;2022-12-10T22:15:46;-3.40;99.90
17813;DHT22;9030;50.792;8.320;2022-12-10T22:18:14;-3.40;99.90
17813;DHT22;9030;50.792;8.320;2022-12-10T22:20:43;-3.40;99.90
17813;DHT22;9030;50.792;8.320;2022-12-10T22:23:13;-3.40;99.90
17813;DHT22;9030;50.792;8.320;2022-12-10T22:25:40;-3.40;99.90
17813;DHT22;9030;50.792;8.320;2022-12-10T22:28:07;-3.40;99.90
17813;DHT22;9030;50.792;8.320;2022-12-10T22:30:34;-3.40;99.90
17813;DHT22;9030;50.792;8.320;2022-12-10T22:33:02;-3.40;99.90
17813;DHT22;9030;50.792;8.320;2022-12-10T22:35:28;-3.30;99.90
17813;DHT22;9030;50.792;8.320;2022-12-10T22:37:56;-3.40;99.90
17813;DHT22;9030;50.792;8.320;2022-12-10T22:40:24;-3.40;99.90
17813;DHT22;9030;50.792;8.320;2022-12-10T22:42:51;-3.40;99.90
17813;DHT22;9030;50.792;8.320;2022-12-10T22:45:18;-3.50;99.90
17813;DHT22;9030;50.792;8.320;2022-12-10T22:47:45;-3.70;99.90
17813;DHT22;9030;50.792;8.320;2022-12-10T22:50:11;-3.70;99.90
17813;DHT22;9030;50.792;8.320;2022-12-10T22:52:38;-3.70;99.90
17813;DHT22;9030;50.792;8.320;2022-12-10T22:55:07;-3.60;99.90
17813;DHT22;9030;50.792;8.320;2022-12-10T22:57:34;-3.50;99.90
17813;DHT22;9030;50.792;8.320;2022-12-10T23:00:02;-3.60;99.90
17813;DHT22;9030;50.792;8.320;2022-12-10T23:02:36;-3.60;99.90
17813;DHT22;9030;50.792;8.320;2022-12-10T23:05:03;-3.40;99.90
17813;DHT22;9030;50.792;8.320;2022-12-10T23:07:30;-3.30;99.90
17813;DHT22;9030;50.792;8.320;2022-12-10T23:09:57;-3.50;99.90
17813;DHT22;9030;50.792;8.320;2022-12-10T23:12:25;-3.60;99.90
17813;DHT22;9030;50.792;8.320;2022-12-10T23:15:09;-3.60;99.90
17813;DHT22;9030;50.792;8.320;2022-12-10T23:17:36;-3.60;99.90
17813;DHT22;9030;50.792;8.320;2022-12-10T23:20:04;-3.50;99.90
17813;DHT22;9030;50.792;8.320;2022-12-10T23:22:31;-3.50;99.90
17813;DHT22;9030;50.792;8.320;2022-12-10T23:24:58;-3.40;99.90
17813;DHT22;9030;50.792;8.320;2022-12-10T23:27:27;-3.40;99.90
17813;DHT22;9030;50.792;8.320;2022-12-10T23:29:53;-3.40;99.90
17813;DHT22;9030;50.792;8.320;2022-12-10T23:32:20;-3.30;99.90